< < Back
Terminal Aerodrome Forecast


Current Version              Previous Versions:   1  2  3  4  5  6  7  8  9  

Terminal Aerodrome Forecast

676
FTUS42 KFFC 042343
TAFCSG
TAF
KCSG 042343Z 0500/0524 22010G18KT P6SM BKN050
     FM050300 21010KT P6SM VCSH BKN025
     FM050600 21007KT 6SM -SHRA BR BKN007
     FM051000 21006KT 3SM -SHRA BR BKN005
     FM051700 31012KT 6SM -RA BR OVC008=

Latest METAR

016
SAUS70 KWBC 051600 RRA
MTRCSG
METAR KCSG 051551Z 30020G29KT 4SM BR SCT015 BKN021 OVC025 21/18 A3000
RMK AO2 PK WND 31029/1551 RAE08B24E51 PRESRR SLP154 P0007
T02060183


USA.gov is the U.S. government's official web portal to all federal, state and local government web resources and services.